Time;durP1;ratioP1;P1;durP2;ratioP2;P2;SDS_P1;SDS_P2;PMS_P1;PMS_P2;Temp;Humidity;BMP_temperature;BMP_pressure;BME280_temperature;BME280_humidity;BME280_pressure;Samples;Min_cycle;Max_cycle;Signal;HPM_P1;HPM_P2
2023/07/31 00:02:19;;;;;;;6.88;2.83;;;14.80;99.90;;;;;;5130930;27;20413;-64
2023/07/31 00:04:46;;;;;;;6.72;2.50;;;14.80;99.90;;;;;;5125879;27;20392;-63
2023/07/31 00:07:13;;;;;;;7.70;3.22;;;14.80;99.90;;;;;;5130426;27;20500;-62
2023/07/31 00:09:40;;;;;;;;;;;14.80;99.90;;;;;;5128531;27;20044;-63
2023/07/31 00:12:07;;;;;;;4.30;2.42;;;14.80;99.90;;;;;;5114754;27;20283;-63
2023/07/31 00:14:34;;;;;;;;;;;14.70;99.90;;;;;;5121382;27;20036;-62
2023/07/31 00:17:01;;;;;;;7.30;2.42;;;14.70;99.90;;;;;;5121291;27;20290;-62
2023/07/31 00:19:28;;;;;;;5.13;2.88;;;14.70;99.90;;;;;;5130561;27;20483;-62
2023/07/31 00:21:54;;;;;;;4.45;2.50;;;14.70;99.90;;;;;;5125367;27;20051;-62
2023/07/31 00:24:21;;;;;;;14.65;3.40;;;14.70;99.90;;;;;;5125772;27;20035;-62
2023/07/31 00:26:48;;;;;;;9.70;2.83;;;14.70;99.90;;;;;;5132371;27;20039;-62
2023/07/31 00:29:15;;;;;;;5.93;2.63;;;14.80;99.90;;;;;;5106837;28;20043;-62
2023/07/31 00:31:41;;;;;;;6.75;2.80;;;14.70;99.90;;;;;;5111742;27;20499;-63
2023/07/31 00:34:08;;;;;;;9.55;2.70;;;14.70;99.90;;;;;;5108825;27;20039;-63
2023/07/31 00:36:35;;;;;;;6.30;2.53;;;14.70;99.90;;;;;;5115522;27;20058;-62
2023/07/31 00:39:02;;;;;;;4.22;2.90;;;14.70;99.90;;;;;;5125596;27;20081;-63
2023/07/31 00:41:29;;;;;;;10.20;3.17;;;14.70;99.90;;;;;;5125428;27;20039;-62
2023/07/31 00:43:56;;;;;;;6.97;3.05;;;14.70;99.90;;;;;;5132123;27;20450;-62
2023/07/31 00:46:22;;;;;;;3.92;2.67;;;14.60;99.90;;;;;;5113140;27;20046;-61
2023/07/31 00:48:49;;;;;;;5.97;2.88;;;14.60;99.90;;;;;;5140506;27;20035;-61
2023/07/31 00:51:17;;;;;;;6.72;3.30;;;14.60;99.90;;;;;;5123375;27;20491;-63
2023/07/31 00:53:46;;;;;;;11.20;2.40;;;14.60;99.90;;;;;;5124696;27;20035;-62
2023/07/31 00:56:13;;;;;;;6.63;2.80;;;14.70;99.90;;;;;;5142698;27;20039;-61
2023/07/31 00:58:40;;;;;;;5.40;3.05;;;14.60;99.90;;;;;;5145754;27;20114;-62
2023/07/31 01:01:07;;;;;;;7.78;2.80;;;14.70;99.90;;;;;;5125615;27;20069;-63
2023/07/31 01:03:34;;;;;;;5.97;2.85;;;14.70;99.90;;;;;;5127351;27;20046;-62
2023/07/31 01:06:25;;;;;;;10.73;2.72;;;14.70;99.90;;;;;;5141081;27;20487;-62
2023/07/31 01:09:06;;;;;;;8.15;2.72;;;14.70;99.90;;;;;;5125513;27;20047;-62
2023/07/31 01:12:00;;;;;;;5.15;2.75;;;14.70;99.90;;;;;;5143287;27;20045;-62
2023/07/31 01:14:27;;;;;;;6.68;2.67;;;14.70;99.90;;;;;;5140775;27;20525;-62
2023/07/31 01:16:55;;;;;;;9.88;2.63;;;14.70;99.90;;;;;;5147555;27;20049;-63
2023/07/31 01:19:23;;;;;;;4.28;2.40;;;14.60;99.90;;;;;;5127334;27;20046;-63
2023/07/31 01:22:32;;;;;;;6.57;2.88;;;14.60;99.90;;;;;;5123334;27;20111;-63
2023/07/31 01:25:17;;;;;;;3.95;2.92;;;14.60;99.90;;;;;;5069561;27;20066;-61
2023/07/31 01:27:59;;;;;;;7.03;2.90;;;14.50;99.90;;;;;;5109425;27;20036;-63
2023/07/31 01:30:28;;;;;;;9.55;3.45;;;14.50;99.90;;;;;;5116252;27;20047;-62
2023/07/31 01:32:57;;;;;;;4.13;2.55;;;14.40;99.90;;;;;;5123629;27;20051;-61
2023/07/31 01:35:25;;;;;;;4.45;2.83;;;14.40;99.90;;;;;;5138954;27;20704;-63
2023/07/31 01:37:54;;;;;;;7.50;3.78;;;14.70;99.90;;;;;;5142351;27;20069;-62
2023/07/31 01:40:20;;;;;;;5.43;2.70;;;14.40;99.90;;;;;;5124832;27;20039;-61
2023/07/31 01:42:47;;;;;;;4.57;2.85;;;14.30;99.90;;;;;;5124109;27;20043;-63
2023/07/31 01:45:14;;;;;;;4.95;2.85;;;14.30;99.90;;;;;;5125090;27;20095;-63
2023/07/31 01:47:41;;;;;;;4.80;2.95;;;14.30;99.90;;;;;;5139957;27;20474;-62
2023/07/31 01:50:08;;;;;;;5.32;2.55;;;14.30;99.90;;;;;;5124931;27;20039;-63
2023/07/31 01:52:35;;;;;;;4.53;2.53;;;14.30;99.90;;;;;;5123069;27;20032;-63
2023/07/31 01:55:02;;;;;;;5.22;2.63;;;14.30;99.90;;;;;;5141927;27;20379;-63
2023/07/31 01:57:29;;;;;;;4.85;2.85;;;14.40;99.90;;;;;;5124246;27;20035;-63
2023/07/31 01:59:56;;;;;;;4.40;2.88;;;14.40;99.90;;;;;;5116118;27;20047;-62
2023/07/31 02:02:23;;;;;;;5.03;2.90;;;14.40;99.90;;;;;;5123984;27;20126;-63
2023/07/31 02:04:51;;;;;;;6.53;2.70;;;14.40;99.90;;;;;;5139056;27;20407;-63
2023/07/31 02:07:18;;;;;;;4.85;2.65;;;14.40;99.90;;;;;;5123899;27;20039;-63
2023/07/31 02:09:46;;;;;;;10.75;3.10;;;14.40;99.90;;;;;;5121438;27;20039;-63
2023/07/31 02:12:14;;;;;;;6.65;3.25;;;14.50;99.90;;;;;;5120914;27;20043;-63
2023/07/31 02:14:41;;;;;;;4.80;2.75;;;14.30;99.90;;;;;;5122776;27;20114;-63
2023/07/31 02:17:08;;;;;;;5.82;2.40;;;14.30;99.90;;;;;;5119490;27;20051;-63
2023/07/31 02:19:35;;;;;;;4.75;2.80;;;14.30;99.90;;;;;;5142343;27;20027;-63
2023/07/31 02:22:02;;;;;;;12.13;3.22;;;14.30;99.90;;;;;;5121924;27;20057;-63
2023/07/31 02:24:29;;;;;;;3.83;3.05;;;14.30;99.90;;;;;;5140710;27;20043;-62
2023/07/31 02:26:57;;;;;;;3.75;2.65;;;14.50;99.90;;;;;;5140970;27;20103;-63
2023/07/31 02:29:25;;;;;;;8.45;2.97;;;14.30;99.90;;;;;;5145316;27;20037;-63
2023/07/31 02:31:52;;;;;;;6.20;3.10;;;14.20;99.90;;;;;;5120206;27;20514;-63
2023/07/31 02:34:18;;;;;;;7.70;3.05;;;14.20;99.90;;;;;;5123928;27;20056;-63
2023/07/31 02:36:45;;;;;;;7.53;2.78;;;14.20;99.90;;;;;;5122356;27;20043;-63
2023/07/31 02:39:12;;;;;;;5.55;2.92;;;14.10;99.90;;;;;;5141780;27;20039;-63
2023/07/31 02:41:39;;;;;;;10.10;3.10;;;14.10;99.90;;;;;;5121474;27;20046;-63
2023/07/31 02:44:06;;;;;;;5.60;3.20;;;14.00;99.90;;;;;;5122223;27;20050;-63
2023/07/31 02:46:32;;;;;;;6.43;2.80;;;14.00;99.90;;;;;;5141200;27;20039;-63
2023/07/31 02:48:59;;;;;;;12.65;3.38;;;14.10;99.90;;;;;;5122542;27;20122;-63
2023/07/31 02:51:26;;;;;;;4.70;2.55;;;14.10;99.90;;;;;;5142690;27;20043;-63
2023/07/31 02:53:53;;;;;;;9.00;3.25;;;14.10;99.90;;;;;;5120435;27;20061;-63
2023/07/31 02:56:20;;;;;;;9.88;2.90;;;14.10;99.90;;;;;;5123983;27;20784;-63
2023/07/31 02:58:46;;;;;;;4.57;2.90;;;14.10;99.90;;;;;;5122039;27;20043;-63
2023/07/31 03:01:14;;;;;;;7.72;3.10;;;14.10;99.90;;;;;;5119509;27;20035;-63
2023/07/31 03:03:42;;;;;;;10.18;3.53;;;14.40;99.90;;;;;;5141428;27;20039;-63
2023/07/31 03:06:09;;;;;;;7.03;2.88;;;14.10;99.90;;;;;;5140013;27;20142;-63
2023/07/31 03:08:36;;;;;;;5.88;2.75;;;14.10;99.90;;;;;;5142441;27;20038;-63
2023/07/31 03:11:02;;;;;;;6.47;2.70;;;14.10;99.90;;;;;;5136888;27;20422;-64
2023/07/31 03:13:29;;;;;;;6.65;2.92;;;14.10;99.90;;;;;;5139435;27;20460;-65
2023/07/31 03:15:56;;;;;;;13.40;3.08;;;14.10;99.90;;;;;;5120229;27;20419;-64
2023/07/31 03:18:23;;;;;;;4.43;3.25;;;14.00;99.90;;;;;;5123609;27;20514;-64
2023/07/31 03:20:49;;;;;;;5.63;2.60;;;14.00;99.90;;;;;;5138474;27;20035;-64
2023/07/31 03:23:16;;;;;;;7.88;2.90;;;14.00;99.90;;;;;;5123966;27;20395;-64
2023/07/31 03:26:16;;;;;;;5.72;2.83;;;14.00;99.90;;;;;;5139393;27;20023;-64
2023/07/31 03:28:42;;;;;;;10.05;3.75;;;14.00;99.90;;;;;;5073960;27;20126;-64
2023/07/31 03:31:09;;;;;;;5.57;3.35;;;14.00;99.90;;;;;;5138159;27;20408;-64
2023/07/31 03:33:36;;;;;;;9.05;3.05;;;13.90;99.90;;;;;;5142144;27;20559;-64
2023/07/31 03:36:04;;;;;;;11.15;3.13;;;13.90;99.90;;;;;;5141239;27;20080;-64
2023/07/31 03:38:30;;;;;;;3.92;2.88;;;13.90;99.90;;;;;;5139551;27;20031;-63
2023/07/31 03:40:58;;;;;;;4.25;2.92;;;13.80;99.90;;;;;;5139546;27;20122;-64
2023/07/31 03:43:25;;;;;;;7.15;2.67;;;13.80;99.90;;;;;;5143668;27;20065;-64
2023/07/31 03:45:53;;;;;;;6.90;3.08;;;13.90;99.90;;;;;;5121036;27;20045;-63
2023/07/31 03:48:20;;;;;;;7.45;3.17;;;13.80;99.90;;;;;;5141998;27;20054;-62
2023/07/31 03:50:47;;;;;;;4.63;2.63;;;13.80;99.90;;;;;;5143696;27;20056;-64
2023/07/31 03:53:14;;;;;;;5.00;2.95;;;13.80;99.90;;;;;;5123483;27;20129;-64
2023/07/31 03:55:41;;;;;;;;;;;13.80;99.90;;;;;;5139596;27;20043;-64
2023/07/31 03:58:08;;;;;;;7.60;2.90;;;13.80;99.90;;;;;;5143065;27;20281;-64
2023/07/31 04:00:34;;;;;;;4.10;2.67;;;13.80;99.90;;;;;;5143113;27;20714;-64
2023/07/31 04:03:01;;;;;;;3.53;2.80;;;13.80;99.90;;;;;;5138260;27;20049;-64
2023/07/31 04:05:31;;;;;;;6.30;2.53;;;13.90;99.90;;;;;;5123996;27;20402;-64
2023/07/31 04:07:58;;;;;;;6.40;2.80;;;13.90;99.90;;;;;;5142677;27;20491;-64
2023/07/31 04:10:25;;;;;;;9.32;2.90;;;13.90;99.90;;;;;;5142748;27;20057;-64
2023/07/31 04:12:51;;;;;;;3.45;2.85;;;13.90;99.90;;;;;;5142291;27;20054;-64
2023/07/31 04:15:18;;;;;;;8.73;2.88;;;14.00;99.90;;;;;;5143832;27;20050;-63
2023/07/31 04:17:45;;;;;;;9.50;2.92;;;14.00;99.90;;;;;;5124141;27;20046;-64
2023/07/31 04:20:12;;;;;;;7.88;2.95;;;14.10;99.90;;;;;;5139945;27;20547;-64
2023/07/31 04:22:38;;;;;;;7.38;3.13;;;14.20;99.90;;;;;;5142053;27;20046;-64
2023/07/31 04:25:05;;;;;;;5.25;2.60;;;14.20;99.90;;;;;;5120560;27;20048;-64
2023/07/31 04:27:32;;;;;;;8.02;2.90;;;14.30;99.90;;;;;;5143153;27;20043;-64
2023/07/31 04:29:59;;;;;;;7.47;2.88;;;14.30;99.90;;;;;;5141511;27;20051;-64
2023/07/31 04:32:26;;;;;;;5.20;2.70;;;14.30;99.90;;;;;;5143317;27;20035;-63
2023/07/31 04:34:52;;;;;;;5.70;3.10;;;14.50;99.90;;;;;;5136097;27;20066;-64
2023/07/31 04:37:19;;;;;;;7.95;3.30;;;14.60;99.90;;;;;;5142663;27;20031;-64
2023/07/31 04:39:46;;;;;;;5.70;2.70;;;14.60;99.90;;;;;;5141765;27;20046;-64
2023/07/31 04:42:13;;;;;;;5.93;2.60;;;14.70;99.90;;;;;;5140602;27;20479;-64
2023/07/31 04:44:40;;;;;;;5.68;3.05;;;14.80;99.90;;;;;;5143124;27;20043;-64
2023/07/31 04:47:06;;;;;;;5.68;3.10;;;14.90;99.90;;;;;;5137816;27;20407;-64
2023/07/31 04:49:33;;;;;;;9.48;3.67;;;14.80;99.90;;;;;;5122631;27;20069;-64
2023/07/31 04:52:00;;;;;;;11.82;3.60;;;14.80;99.90;;;;;;5134424;27;20040;-64
2023/07/31 04:54:27;;;;;;;9.60;3.70;;;14.80;99.90;;;;;;5132756;27;20031;-64
2023/07/31 04:56:53;;;;;;;5.75;3.88;;;14.70;99.90;;;;;;5132736;27;20035;-64
2023/07/31 04:59:20;;;;;;;9.52;3.75;;;14.70;99.90;;;;;;5139035;27;20047;-64
2023/07/31 05:01:47;;;;;;;9.70;3.92;;;14.70;99.90;;;;;;5131878;27;20122;-64
2023/07/31 05:04:14;;;;;;;11.90;3.97;;;14.70;99.90;;;;;;5132662;27;20096;-64
2023/07/31 05:06:41;;;;;;;9.35;4.30;;;14.80;99.90;;;;;;5134500;27;20066;-64
2023/07/31 05:09:09;;;;;;;7.72;3.70;;;14.80;99.90;;;;;;5133746;27;20035;-64
2023/07/31 05:11:36;;;;;;;8.85;3.67;;;14.90;99.90;;;;;;5132317;27;20050;-64
2023/07/31 05:14:03;;;;;;;7.35;3.58;;;14.90;99.90;;;;;;5141117;27;20476;-64
2023/07/31 05:16:29;;;;;;;6.47;3.28;;;15.00;99.90;;;;;;5142416;27;20065;-64
2023/07/31 05:18:56;;;;;;;14.75;3.97;;;15.10;99.90;;;;;;5135018;27;20071;-64
2023/07/31 05:21:24;;;;;;;8.70;4.07;;;15.20;99.90;;;;;;5141906;27;20027;-64
2023/07/31 05:23:50;;;;;;;7.00;4.00;;;15.30;99.90;;;;;;5134664;27;20044;-64
2023/07/31 05:26:17;;;;;;;14.38;3.97;;;15.40;99.90;;;;;;5106958;27;20392;-64
2023/07/31 05:28:45;;;;;;;11.52;3.67;;;15.50;99.90;;;;;;5130238;27;20583;-64
2023/07/31 05:31:12;;;;;;;11.35;4.07;;;15.50;99.90;;;;;;5131106;27;20122;-64
2023/07/31 05:33:39;;;;;;;7.18;3.53;;;15.70;99.90;;;;;;5121649;27;20041;-64
2023/07/31 05:36:05;;;;;;;8.48;3.63;;;15.80;99.90;;;;;;5140980;27;20506;-64
2023/07/31 05:38:32;;;;;;;15.13;3.40;;;15.90;99.90;;;;;;5143703;27;20475;-64
2023/07/31 05:40:59;;;;;;;6.78;3.35;;;16.00;99.90;;;;;;5141959;27;20035;-64
2023/07/31 05:43:26;;;;;;;4.75;3.22;;;16.10;99.90;;;;;;5141425;27;20039;-64
2023/07/31 05:45:52;;;;;;;5.53;2.90;;;16.20;99.90;;;;;;5143991;27;20046;-64
2023/07/31 05:48:19;;;;;;;6.35;3.22;;;16.30;99.90;;;;;;5141213;27;20046;-64
2023/07/31 05:50:46;;;;;;;8.20;3.05;;;16.40;99.90;;;;;;5133388;27;20087;-64
2023/07/31 05:53:13;;;;;;;6.60;3.40;;;16.40;99.90;;;;;;5143163;27;20043;-64
2023/07/31 05:55:39;;;;;;;7.20;3.00;;;16.40;99.90;;;;;;5147212;27;20030;-64
2023/07/31 05:58:06;;;;;;;5.70;3.33;;;16.30;99.90;;;;;;5142809;27;20042;-64
2023/07/31 06:00:33;;;;;;;8.30;3.45;;;16.40;99.90;;;;;;5134614;27;20050;-63
2023/07/31 06:03:00;;;;;;;7.18;3.65;;;16.40;99.90;;;;;;5135984;27;20053;-64
2023/07/31 06:05:29;;;;;;;6.47;3.28;;;16.30;99.90;;;;;;5131672;27;20232;-64
2023/07/31 06:07:56;;;;;;;7.65;3.50;;;16.30;99.90;;;;;;5140600;27;20045;-64
2023/07/31 06:10:23;;;;;;;7.55;3.47;;;16.20;99.90;;;;;;5142350;27;20046;-64
2023/07/31 06:12:50;;;;;;;7.32;3.70;;;16.30;99.90;;;;;;5142911;27;20475;-64
2023/07/31 06:15:18;;;;;;;4.72;3.08;;;16.30;99.90;;;;;;5140806;27;20049;-63
2023/07/31 06:17:46;;;;;;;6.20;3.40;;;16.30;99.90;;;;;;5137994;27;20391;-64
2023/07/31 06:20:13;;;;;;;6.82;3.35;;;16.30;99.90;;;;;;5113866;27;20051;-64
2023/07/31 06:22:39;;;;;;;4.65;3.13;;;16.40;99.90;;;;;;5134121;27;20045;-64
2023/07/31 06:25:07;;;;;;;6.22;3.80;;;16.40;99.90;;;;;;5133382;27;20047;-64
2023/07/31 06:27:33;;;;;;;5.85;3.35;;;16.50;99.90;;;;;;5126978;27;20039;-64
2023/07/31 06:30:00;;;;;;;8.35;3.72;;;16.50;99.90;;;;;;5133845;27;20039;-63
2023/07/31 06:32:27;;;;;;;8.85;4.25;;;16.70;99.90;;;;;;5141435;27;20053;-64
2023/07/31 06:34:54;;;;;;;7.75;3.20;;;16.90;99.90;;;;;;5140728;27;20529;-63
2023/07/31 06:37:20;;;;;;;6.18;3.20;;;17.00;99.90;;;;;;5142485;27;20407;-64
2023/07/31 06:39:48;;;;;;;5.43;3.13;;;17.20;99.90;;;;;;5144053;27;20501;-64
2023/07/31 06:42:14;;;;;;;;;;;17.30;99.90;;;;;;5141074;27;20483;-64
2023/07/31 06:44:42;;;;;;;6.10;2.92;;;17.40;99.90;;;;;;5124248;27;20389;-64
2023/07/31 06:47:08;;;;;;;8.63;3.00;;;17.50;99.90;;;;;;5142089;27;20517;-64
2023/07/31 06:49:35;;;;;;;7.10;3.10;;;17.60;99.90;;;;;;5140134;27;20043;-64
2023/07/31 06:52:02;;;;;;;6.25;2.97;;;17.70;99.90;;;;;;5143612;27;20046;-64
2023/07/31 06:54:29;;;;;;;5.90;2.97;;;17.80;99.90;;;;;;5140482;27;20043;-64
2023/07/31 06:56:56;;;;;;;5.63;2.97;;;17.70;99.90;;;;;;5142803;27;20039;-64
2023/07/31 06:59:23;;;;;;;6.45;3.33;;;17.80;99.90;;;;;;5142093;27;20035;-64
2023/07/31 07:01:49;;;;;;;7.72;3.10;;;17.90;99.90;;;;;;5141452;27;20042;-64
2023/07/31 07:04:16;;;;;;;4.55;3.00;;;18.10;99.90;;;;;;5142928;27;20444;-64
2023/07/31 07:06:43;;;;;;;6.15;2.78;;;18.30;99.90;;;;;;5139917;27;20031;-64
2023/07/31 07:09:10;;;;;;;6.13;3.25;;;18.40;99.90;;;;;;5140179;27;20390;-64
2023/07/31 07:11:37;;;;;;;4.47;3.28;;;18.40;99.90;;;;;;5138586;27;20031;-64
2023/07/31 07:14:04;;;;;;;5.25;3.40;;;18.40;99.90;;;;;;5142103;27;20488;-64
2023/07/31 07:16:31;;;;;;;10.13;3.47;;;18.20;99.90;;;;;;5142190;27;20041;-64
2023/07/31 07:18:58;;;;;;;9.93;3.47;;;18.30;99.90;;;;;;5141601;27;20038;-64
2023/07/31 07:21:31;;;;;;;4.90;2.83;;;18.40;99.90;;;;;;5140639;27;20027;-64
2023/07/31 07:23:58;;;;;;;9.55;3.13;;;18.50;99.90;;;;;;5142352;27;20066;-64
2023/07/31 07:26:24;;;;;;;11.25;3.33;;;18.60;99.90;;;;;;5142766;27;20043;-64
2023/07/31 07:28:51;;;;;;;10.48;3.47;;;18.70;99.90;;;;;;5142665;27;20122;-64
2023/07/31 07:31:20;;;;;;;10.30;3.95;;;18.90;99.90;;;;;;5143716;27;20399;-64
2023/07/31 07:33:47;;;;;;;6.88;3.20;;;19.00;99.90;;;;;;5142307;27;20039;-64
2023/07/31 07:36:13;;;;;;;9.15;3.58;;;19.00;99.90;;;;;;5143340;27;20043;-64
2023/07/31 07:38:41;;;;;;;11.50;4.03;;;19.30;99.90;;;;;;5144466;27;20585;-65
2023/07/31 07:41:08;;;;;;;5.53;3.25;;;19.60;99.90;;;;;;5141069;27;20032;-64
2023/07/31 07:43:34;;;;;;;7.10;3.10;;;19.80;99.90;;;;;;5141716;27;20032;-62
2023/07/31 07:46:01;;;;;;;5.38;3.40;;;20.10;99.90;;;;;;5143129;27;20042;-62
2023/07/31 07:48:28;;;;;;;;;;;20.30;99.90;;;;;;5141699;27;20453;-62
2023/07/31 07:50:55;;;;;;;10.30;3.03;;;20.50;99.90;;;;;;5125796;27;20379;-62
2023/07/31 07:53:22;;;;;;;7.63;3.15;;;20.70;99.90;;;;;;5140762;27;20116;-62
2023/07/31 07:55:49;;;;;;;7.38;3.55;;;20.40;99.90;;;;;;5122445;27;20043;-62
2023/07/31 07:58:15;;;;;;;5.80;3.70;;;20.20;99.90;;;;;;5135585;27;20111;-64
2023/07/31 08:00:49;;;;;;;10.35;3.58;;;20.10;99.90;;;;;;5138368;27;20036;-62
2023/07/31 08:03:16;;;;;;;10.18;3.42;;;20.10;99.90;;;;;;5139559;27;20043;-62
2023/07/31 08:05:44;;;;;;;15.10;4.00;;;20.20;99.90;;;;;;5139884;27;20081;-63
2023/07/31 08:08:14;;;;;;;;;;;20.30;99.90;;;;;;5141242;27;20041;-62
2023/07/31 08:10:41;;;;;;;5.55;3.05;;;20.40;99.90;;;;;;5136072;27;19933;-62
2023/07/31 08:13:08;;;;;;;11.00;2.85;;;20.30;99.90;;;;;;5141455;27;20049;-62
2023/07/31 08:15:34;;;;;;;11.60;3.85;;;20.50;99.90;;;;;;5137015;27;20039;-62
2023/07/31 08:18:01;;;;;;;6.03;3.67;;;20.60;99.90;;;;;;5138826;27;20035;-62
2023/07/31 08:20:28;;;;;;;5.13;2.90;;;20.50;99.90;;;;;;5140016;27;20065;-62
2023/07/31 08:22:55;;;;;;;11.02;3.10;;;20.60;99.90;;;;;;5142778;27;20042;-62
2023/07/31 08:25:21;;;;;;;8.75;3.70;;;20.80;99.90;;;;;;5137749;27;20483;-62
2023/07/31 08:27:48;;;;;;;7.03;3.10;;;20.90;99.90;;;;;;5143545;27;20050;-63
2023/07/31 08:30:15;;;;;;;8.23;3.05;;;20.90;99.90;;;;;;5143175;27;20127;-62
2023/07/31 08:32:41;;;;;;;7.38;2.95;;;20.90;99.90;;;;;;5142429;27;20046;-62
2023/07/31 08:35:09;;;;;;;8.40;2.97;;;21.10;99.90;;;;;;5145486;27;20039;-62
2023/07/31 08:37:35;;;;;;;6.13;2.95;;;21.20;99.90;;;;;;5143917;27;20517;-62
2023/07/31 08:40:03;;;;;;;8.25;3.03;;;21.10;99.90;;;;;;5146465;27;20034;-62
2023/07/31 08:42:30;;;;;;;3.97;2.53;;;21.40;99.90;;;;;;5142816;27;20038;-63
2023/07/31 08:44:59;;;;;;;9.98;3.05;;;21.60;99.90;;;;;;5144155;27;20078;-62
2023/07/31 08:47:27;;;;;;;6.78;2.80;;;22.10;99.90;;;;;;5145739;27;20043;-62
2023/07/31 08:49:55;;;;;;;7.70;3.05;;;22.40;99.90;;;;;;5145663;27;20066;-63
2023/07/31 08:52:22;;;;;;;4.40;2.88;;;22.80;99.90;;;;;;5136876;27;20582;-62
2023/07/31 08:54:49;;;;;;;3.65;2.60;;;23.10;99.90;;;;;;5144310;27;20035;-63
2023/07/31 08:57:17;;;;;;;3.92;2.60;;;23.30;99.90;;;;;;5145563;27;20031;-62
2023/07/31 08:59:45;;;;;;;7.53;2.65;;;23.60;99.90;;;;;;5124444;27;20125;-62
2023/07/31 09:02:13;;;;;;;10.38;3.28;;;23.30;99.90;;;;;;5143648;27;20039;-62
2023/07/31 09:04:40;;;;;;;4.55;3.00;;;23.10;99.90;;;;;;5124943;27;20038;-62
2023/07/31 09:07:09;;;;;;;4.00;3.25;;;23.20;99.90;;;;;;5145519;27;20035;-62
2023/07/31 09:09:35;;;;;;;7.55;3.60;;;23.40;99.90;;;;;;5141088;27;20031;-62
2023/07/31 09:12:03;;;;;;;5.07;3.42;;;23.50;99.90;;;;;;5144378;27;20050;-62
2023/07/31 09:14:30;;;;;;;6.10;2.90;;;23.50;99.90;;;;;;5144459;27;20031;-66
2023/07/31 09:16:59;;;;;;;7.28;2.95;;;23.40;99.90;;;;;;5146814;27;20049;-62
2023/07/31 09:19:33;;;;;;;3.90;2.67;;;23.50;99.90;;;;;;5145328;27;20522;-63
2023/07/31 09:22:00;;;;;;;7.53;3.28;;;23.70;99.90;;;;;;5131610;27;20043;-62
2023/07/31 09:24:31;;;;;;;;;;;23.80;99.90;;;;;;5140115;27;20078;-62
2023/07/31 09:26:59;;;;;;;4.53;2.78;;;24.00;99.90;;;;;;5137848;27;19923;-63
2023/07/31 09:29:27;;;;;;;4.28;3.15;;;24.10;99.90;;;;;;5123186;27;20430;-63
2023/07/31 09:31:55;;;;;;;4.38;2.85;;;24.10;99.90;;;;;;5128340;27;20076;-62
2023/07/31 09:34:30;;;;;;;6.38;3.10;;;24.10;99.90;;;;;;5132683;27;20039;-62
2023/07/31 09:37:02;;;;;;;11.30;2.90;;;24.10;99.90;;;;;;5130689;27;20047;-63
2023/07/31 09:39:29;;;;;;;6.32;2.63;;;24.20;99.90;;;;;;5134311;27;20084;-63
2023/07/31 09:41:56;;;;;;;;;;;24.10;99.90;;;;;;5123105;27;20031;-63
2023/07/31 09:44:42;;;;;;;8.05;3.10;;;23.60;99.90;;;;;;5130266;27;19925;-63
2023/07/31 09:47:24;;;;;;;6.75;3.35;;;23.20;99.90;;;;;;5136243;27;20113;-62
2023/07/31 09:49:53;;;;;;;7.63;3.05;;;22.90;99.90;;;;;;5144396;27;20043;-62
2023/07/31 09:52:20;;;;;;;4.53;3.08;;;22.90;99.90;;;;;;5144214;27;20417;-63
2023/07/31 09:54:46;;;;;;;5.32;3.10;;;23.20;99.90;;;;;;5134654;27;20047;-63
2023/07/31 09:57:16;;;;;;;6.22;3.00;;;23.50;99.90;;;;;;5129034;27;20047;-63
2023/07/31 09:59:44;;;;;;;3.95;2.80;;;23.50;99.90;;;;;;5122769;27;20123;-63
2023/07/31 10:02:20;;;;;;;3.42;2.90;;;23.30;99.90;;;;;;5133077;27;20035;-62
2023/07/31 10:04:49;;;;;;;6.43;3.10;;;23.30;99.90;;;;;;5133590;27;20044;-62
2023/07/31 10:07:18;;;;;;;5.18;2.85;;;23.10;99.90;;;;;;5134193;27;20061;-62
2023/07/31 10:09:46;;;;;;;5.45;2.97;;;23.20;99.90;;;;;;5132123;27;20503;-63
2023/07/31 10:12:15;;;;;;;4.90;2.85;;;23.20;99.90;;;;;;5133949;27;20054;-62
2023/07/31 10:14:42;;;;;;;7.03;3.13;;;23.40;99.90;;;;;;5132761;27;20046;-63
2023/07/31 10:17:09;;;;;;;;;;;23.60;99.90;;;;;;5133616;27;20065;-63
2023/07/31 10:19:36;;;;;;;4.38;2.90;;;23.60;99.90;;;;;;5131202;27;20815;-63
2023/07/31 10:22:04;;;;;;;3.65;2.50;;;23.50;99.90;;;;;;5130497;27;20043;-63
2023/07/31 10:24:32;;;;;;;9.43;3.22;;;23.50;99.90;;;;;;5128937;27;20045;-63
2023/07/31 10:27:01;;;;;;;7.57;3.00;;;23.40;99.90;;;;;;5130358;27;20451;-63
2023/07/31 10:29:29;;;;;;;6.05;3.38;;;23.20;99.90;;;;;;5130503;27;20116;-63
2023/07/31 10:31:58;;;;;;;7.22;2.50;;;23.10;99.90;;;;;;5128642;27;20035;-62
2023/07/31 10:34:25;;;;;;;8.98;3.20;;;23.10;99.90;;;;;;5111812;27;20609;-63
2023/07/31 10:37:24;;;;;;;4.57;2.80;;;23.20;99.90;;;;;;5130031;27;20987;-62
2023/07/31 10:40:01;;;;;;;;;;;23.40;99.90;;;;;;5129067;27;20046;-63
2023/07/31 10:42:30;;;;;;;4.65;2.50;;;23.20;99.90;;;;;;5129389;27;20718;-63
2023/07/31 10:45:04;;;;;;;4.93;3.05;;;23.10;99.90;;;;;;5129856;27;20039;-63
2023/07/31 10:47:42;;;;;;;5.50;2.72;;;22.90;99.90;;;;;;5129754;27;20046;-62
2023/07/31 10:50:20;;;;;;;6.47;3.00;;;22.70;99.90;;;;;;5130922;27;20167;-62
2023/07/31 10:52:51;;;;;;;5.45;3.20;;;22.60;99.90;;;;;;5130771;27;20038;-62
2023/07/31 10:55:25;;;;;;;14.77;3.25;;;22.60;99.90;;;;;;5131512;27;20126;-62
2023/07/31 10:57:54;;;;;;;5.38;2.50;;;22.90;99.90;;;;;;5129251;27;20043;-62
2023/07/31 11:00:22;;;;;;;4.93;2.60;;;23.10;99.90;;;;;;5130442;27;20031;-62
2023/07/31 11:02:59;;;;;;;4.35;2.08;;;23.20;99.90;;;;;;5128758;27;20027;-62
2023/07/31 11:05:47;;;;;;;5.35;2.50;;;23.30;99.90;;;;;;5130087;27;20046;-62
2023/07/31 11:08:24;;;;;;;;;;;23.30;99.90;;;;;;5130376;27;20406;-63
2023/07/31 11:11:10;;;;;;;3.45;2.50;;;23.30;99.90;;;;;;5128233;27;19946;-62
2023/07/31 11:13:45;;;;;;;4.72;2.60;;;23.30;99.90;;;;;;5129735;27;20035;-63
2023/07/31 11:16:13;;;;;;;5.65;2.95;;;23.30;99.90;;;;;;5128923;27;20278;-63
2023/07/31 11:18:42;;;;;;;4.85;2.95;;;23.30;99.90;;;;;;5129591;27;20488;-63
2023/07/31 11:21:13;;;;;;;4.32;2.40;;;23.40;99.90;;;;;;5128403;27;20031;-63
2023/07/31 11:23:40;;;;;;;4.82;2.38;;;23.50;99.90;;;;;;5128593;27;20054;-63
2023/07/31 11:26:07;;;;;;;4.18;2.60;;;23.60;99.90;;;;;;5129757;27;20046;-63
2023/07/31 11:28:35;;;;;;;3.97;2.40;;;23.50;99.90;;;;;;5130426;27;20080;-63
2023/07/31 11:31:02;;;;;;;6.18;2.50;;;23.40;99.90;;;;;;5128985;27;20047;-62
2023/07/31 11:33:29;;;;;;;3.25;2.47;;;23.30;99.90;;;;;;5129219;27;20050;-62
2023/07/31 11:35:57;;;;;;;;;;;22.90;99.90;;;;;;5111445;27;20047;-62
2023/07/31 11:38:30;;;;;;;4.60;2.80;;;22.90;99.90;;;;;;5129230;27;19920;-62
2023/07/31 11:41:04;;;;;;;5.80;2.78;;;22.90;99.90;;;;;;5129437;27;20388;-63
2023/07/31 11:43:32;;;;;;;3.20;2.40;;;23.00;99.90;;;;;;5129041;27;20091;-62
2023/07/31 11:46:04;;;;;;;3.47;2.20;;;22.90;99.90;;;;;;5129945;27;20042;-62
2023/07/31 11:48:36;;;;;;;8.77;2.55;;;22.80;99.90;;;;;;5129718;27;20042;-62
2023/07/31 11:51:10;;;;;;;6.40;2.65;;;22.80;99.90;;;;;;5127839;27;20050;-62
2023/07/31 11:53:48;;;;;;;5.55;2.28;;;23.10;99.90;;;;;;5130107;27;20046;-62
2023/07/31 11:56:18;;;;;;;3.45;2.60;;;23.10;99.90;;;;;;5129150;27;20043;-62
2023/07/31 11:58:47;;;;;;;3.28;2.33;;;22.90;99.90;;;;;;5129297;27;20051;-62
2023/07/31 12:01:18;;;;;;;4.65;2.20;;;22.60;99.90;;;;;;5126513;27;20040;-62
2023/07/31 12:03:46;;;;;;;4.53;2.00;;;22.90;99.90;;;;;;5128987;27;20042;-63
2023/07/31 12:06:13;;;;;;;9.45;2.60;;;23.20;99.90;;;;;;5128758;27;20049;-61
2023/07/31 12:08:40;;;;;;;4.97;2.58;;;23.30;99.90;;;;;;5129187;28;20273;-60
2023/07/31 12:11:11;;;;;;;3.95;2.65;;;23.40;99.90;;;;;;5128033;27;20039;-61
2023/07/31 12:13:38;;;;;;;4.13;2.38;;;23.50;99.90;;;;;;5128969;27;20039;-61
2023/07/31 12:16:05;;;;;;;5.00;2.20;;;23.80;99.90;;;;;;5128845;27;20463;-61
2023/07/31 12:18:37;;;;;;;2.83;2.40;;;23.70;99.90;;;;;;5128071;27;20050;-61
2023/07/31 12:21:06;;;;;;;4.85;2.40;;;23.80;99.90;;;;;;5128662;27;20070;-61
2023/07/31 12:23:35;;;;;;;9.30;2.53;;;24.00;99.90;;;;;;5127223;27;20047;-61
2023/07/31 12:26:12;;;;;;;6.43;2.38;;;24.10;99.90;;;;;;5128729;27;20059;-64
2023/07/31 12:28:47;;;;;;;5.13;2.70;;;24.20;99.90;;;;;;5128467;27;20043;-63
2023/07/31 12:31:20;;;;;;;4.57;2.70;;;24.30;99.90;;;;;;5128528;27;20031;-62
2023/07/31 12:33:49;;;;;;;2.92;2.30;;;24.40;99.90;;;;;;5128223;27;20047;-61
2023/07/31 12:36:22;;;;;;;2.58;2.15;;;24.60;99.90;;;;;;5128584;27;20063;-61
2023/07/31 12:38:50;;;;;;;2.47;2.03;;;24.90;99.90;;;;;;5128635;27;20571;-61
2023/07/31 12:41:17;;;;;;;6.13;2.75;;;25.10;99.90;;;;;;5127536;27;20054;-61
2023/07/31 12:43:45;;;;;;;6.28;2.35;;;25.30;99.90;;;;;;5128786;27;20105;-61
2023/07/31 12:46:12;;;;;;;6.20;2.33;;;24.90;99.90;;;;;;5128672;27;20042;-61
2023/07/31 12:48:40;;;;;;;4.53;2.67;;;24.60;99.90;;;;;;5109555;28;20043;-61
2023/07/31 12:51:07;;;;;;;4.18;2.53;;;24.30;99.90;;;;;;5126876;27;20045;-61
2023/07/31 12:53:35;;;;;;;4.32;2.65;;;24.20;99.90;;;;;;5128721;27;20484;-61
2023/07/31 12:56:02;;;;;;;4.05;2.53;;;24.30;99.90;;;;;;5128240;27;20066;-61